Time;durP1;ratioP1;P1;durP2;ratioP2;P2;SDS_P1;SDS_P2;PMS_P1;PMS_P2;Temp;Humidity;BMP_temperature;BMP_pressure;BME280_temperature;BME280_humidity;BME280_pressure;Samples;Min_cycle;Max_cycle;Signal;HPM_P1;HPM_P2
2023/03/31 00:00:45;;;;;;;11.77;4.82;;;;;;;10.20;100.00;100880.63;5029777;28;20068;-77
2023/03/31 00:03:20;;;;;;;8.18;3.78;;;;;;;10.20;100.00;100886.66;5027840;28;20041;-76
2023/03/31 00:05:54;;;;;;;6.90;3.95;;;;;;;10.20;100.00;100884.03;5013537;28;20452;-77
2023/03/31 00:08:20;;;;;;;13.18;4.70;;;;;;;10.20;100.00;100878.00;5018786;28;20053;-76
2023/03/31 00:10:46;;;;;;;14.38;4.30;;;;;;;10.17;100.00;100868.66;5018426;28;20029;-76
2023/03/31 00:13:12;;;;;;;6.43;4.35;;;;;;;10.16;100.00;100868.78;5024659;28;20026;-76
2023/03/31 00:15:38;;;;;;;9.60;4.43;;;;;;;10.14;100.00;100868.09;5025084;28;20545;-77
2023/03/31 00:18:04;;;;;;;10.25;4.65;;;;;;;10.14;100.00;100866.31;5016128;28;20112;-76
2023/03/31 00:20:32;;;;;;;9.68;4.50;;;;;;;10.14;100.00;100871.50;5019575;28;20105;-76
2023/03/31 00:23:00;;;;;;;17.70;6.72;;;;;;;10.12;100.00;100870.00;5018823;28;20033;-75
2023/03/31 00:25:26;;;;;;;10.77;5.82;;;;;;;10.11;100.00;100863.97;5021621;28;20037;-76
2023/03/31 00:27:52;;;;;;;10.93;5.72;;;;;;;10.10;100.00;100853.69;5034203;28;20041;-76
2023/03/31 00:30:17;;;;;;;11.18;5.53;;;;;;;10.11;100.00;100850.13;5034361;28;20131;-76
2023/03/31 00:32:43;;;;;;;8.68;4.35;;;;;;;10.11;100.00;100840.53;5023052;28;20411;-76
2023/03/31 00:35:09;;;;;;;12.80;5.70;;;;;;;10.12;100.00;100843.97;5021714;28;20044;-76
2023/03/31 00:37:34;;;;;;;13.73;5.45;;;;;;;10.12;100.00;100850.00;5019253;28;20029;-76
2023/03/31 00:40:00;;;;;;;8.48;4.53;;;;;;;10.13;100.00;100843.00;5020535;28;20541;-77
2023/03/31 00:42:26;;;;;;;12.57;4.65;;;;;;;10.12;100.00;100834.38;5024738;28;20529;-77
2023/03/31 00:45:13;;;;;;;9.57;3.85;;;;;;;10.14;100.00;100823.81;5013611;28;20081;-76
2023/03/31 00:48:10;;;;;;;12.82;3.97;;;;;;;10.18;100.00;100826.03;5020918;28;20437;-76
2023/03/31 00:50:43;;;;;;;12.27;3.67;;;;;;;10.20;100.00;100811.13;5015215;28;20022;-77
2023/03/31 00:53:13;;;;;;;8.13;3.22;;;;;;;10.21;100.00;100814.56;5017032;28;20034;-77
2023/03/31 00:55:53;;;;;;;8.77;3.88;;;;;;;10.22;100.00;100809.22;5015382;28;20029;-77
2023/03/31 00:58:20;;;;;;;5.72;3.33;;;;;;;10.20;100.00;100808.53;5011202;28;20041;-77
2023/03/31 01:00:47;;;;;;;9.65;4.18;;;;;;;10.17;100.00;100795.75;5012145;28;20495;-77
2023/03/31 01:03:14;;;;;;;11.00;4.20;;;;;;;10.16;100.00;100795.88;5011110;28;20041;-76
2023/03/31 01:05:40;;;;;;;9.68;3.83;;;;;;;10.16;100.00;100786.28;5012737;28;20046;-77
2023/03/31 01:08:06;;;;;;;16.95;4.43;;;;;;;10.15;100.00;100796.84;5014090;28;20180;-76
2023/03/31 01:10:40;;;;;;;8.57;3.80;;;;;;;10.13;100.00;100783.13;5016974;28;20463;-76
2023/03/31 01:13:09;;;;;;;8.32;3.90;;;;;;;10.11;100.00;100785.84;5014604;28;20026;-76
2023/03/31 01:15:35;;;;;;;10.00;4.40;;;;;;;10.11;100.00;100793.66;5011847;28;20037;-77
2023/03/31 01:18:02;;;;;;;8.52;3.60;;;;;;;10.07;100.00;100779.28;5011420;28;20497;-77
2023/03/31 01:20:39;;;;;;;6.70;3.45;;;;;;;10.07;100.00;100771.47;5011542;28;20036;-77
2023/03/31 01:23:25;;;;;;;9.98;3.55;;;;;;;10.06;100.00;100777.63;5011434;28;20213;-76
2023/03/31 01:25:56;;;;;;;;;;;;;;;10.06;100.00;100769.00;5017841;28;20105;-76
2023/03/31 01:28:48;;;;;;;8.20;3.10;;;;;;;10.09;100.00;100760.91;5017294;28;19989;-77
2023/03/31 01:31:26;;;;;;;9.23;3.47;;;;;;;10.09;100.00;100759.13;5020471;28;20348;-76
2023/03/31 01:34:13;;;;;;;8.20;3.60;;;;;;;10.08;100.00;100754.06;5014345;28;20067;-76
2023/03/31 01:37:20;;;;;;;7.72;3.78;;;;;;;10.03;100.00;100751.84;5011735;28;20436;-76
2023/03/31 01:40:17;;;;;;;10.48;3.47;;;;;;;10.03;100.00;100751.03;4988940;28;20084;-76
2023/03/31 01:42:43;;;;;;;7.20;3.78;;;;;;;10.04;100.00;100752.69;4984319;28;20153;-76
2023/03/31 01:45:11;;;;;;;7.75;3.72;;;;;;;10.03;100.00;100741.44;4987739;28;20046;-77
2023/03/31 01:47:45;;;;;;;9.35;4.10;;;;;;;10.01;100.00;100735.53;4988307;28;20212;-77
2023/03/31 01:50:17;;;;;;;6.75;3.35;;;;;;;10.00;100.00;100736.50;4986730;28;20046;-77
2023/03/31 01:53:05;;;;;;;6.68;3.30;;;;;;;9.99;100.00;100732.25;4982947;28;20034;-77
2023/03/31 01:55:41;;;;;;;7.57;4.07;;;;;;;9.99;100.00;100727.03;4986772;28;20047;-77
2023/03/31 01:58:13;;;;;;;11.52;3.80;;;;;;;9.99;100.00;100714.03;4985800;28;20514;-77
2023/03/31 02:00:44;;;;;;;7.70;3.72;;;;;;;9.97;100.00;100705.53;4987299;28;20129;-78
2023/03/31 02:03:21;;;;;;;8.18;3.63;;;;;;;9.94;100.00;100700.59;4984243;28;20065;-77
2023/03/31 02:05:52;;;;;;;6.95;3.88;;;;;;;9.95;100.00;100702.25;4982136;28;20034;-77
2023/03/31 02:08:29;;;;;;;7.38;3.67;;;;;;;9.94;100.00;100701.41;4985373;28;20042;-77
2023/03/31 02:10:57;;;;;;;8.50;3.22;;;;;;;9.97;100.00;100689.91;4987518;28;20135;-77
2023/03/31 02:13:26;;;;;;;6.57;3.00;;;;;;;9.98;100.00;100683.75;4987447;28;20042;-77
2023/03/31 02:15:56;;;;;;;8.77;2.72;;;;;;;10.00;100.00;100679.25;5018638;28;20408;-77
2023/03/31 02:18:27;;;;;;;8.88;2.85;;;;;;;10.04;100.00;100683.22;5026942;28;20146;-78
2023/03/31 02:20:56;;;;;;;8.95;3.10;;;;;;;10.06;100.00;100686.50;5019637;28;20022;-77
2023/03/31 02:23:30;;;;;;;5.45;2.92;;;;;;;10.03;100.00;100684.16;5021531;28;20021;-78
2023/03/31 02:26:07;;;;;;;7.75;3.13;;;;;;;10.01;100.00;100683.50;5019816;28;20111;-78
2023/03/31 02:28:33;;;;;;;6.90;3.03;;;;;;;10.01;100.00;100686.09;5026328;28;20061;-77
2023/03/31 02:31:20;;;;;;;5.53;3.33;;;;;;;9.99;100.00;100681.00;5033342;28;20029;-77
2023/03/31 02:33:47;;;;;;;6.80;3.03;;;;;;;9.99;100.00;100683.63;5026726;28;20037;-77
2023/03/31 02:36:12;;;;;;;8.10;3.78;;;;;;;9.98;100.00;100679.38;5017160;28;20041;-77
2023/03/31 02:38:54;;;;;;;7.72;3.47;;;;;;;9.97;100.00;100675.13;5021137;28;20040;-77
2023/03/31 02:41:20;;;;;;;8.52;3.83;;;;;;;9.97;100.00;100677.72;5027102;28;20029;-77
2023/03/31 02:43:45;;;;;;;7.18;4.20;;;;;;;9.94;100.00;100675.38;5032394;28;20048;-77
2023/03/31 02:46:11;;;;;;;10.75;4.15;;;;;;;9.91;100.00;100667.06;5032348;28;20067;-78
2023/03/31 02:48:40;;;;;;;5.40;3.90;;;;;;;9.89;100.00;100664.59;5030425;28;20030;-77
2023/03/31 02:51:32;;;;;;;9.48;4.55;;;;;;;9.87;100.00;100663.91;5018144;28;20486;-77
2023/03/31 02:54:19;;;;;;;8.02;4.03;;;;;;;9.90;100.00;100660.22;5025198;28;20419;-77
2023/03/31 02:57:06;;;;;;;9.63;5.75;;;;;;;9.89;100.00;100658.56;5028046;28;20075;-77
2023/03/31 03:00:00;;;;;;;9.75;4.80;;;;;;;9.85;100.00;100658.00;5029653;28;20064;-77
2023/03/31 03:02:53;;;;;;;9.15;4.60;;;;;;;9.85;100.00;100659.78;5021458;28;20376;-77
2023/03/31 03:05:28;;;;;;;6.88;3.55;;;;;;;9.84;100.00;100658.16;5023587;28;20414;-77
2023/03/31 03:08:06;;;;;;;7.85;3.72;;;;;;;9.82;100.00;100660.88;5026042;28;20033;-77
2023/03/31 03:10:48;;;;;;;6.82;3.90;;;;;;;9.83;100.00;100659.09;5032819;28;20029;-77
2023/03/31 03:13:16;;;;;;;7.75;3.80;;;;;;;9.85;100.00;100651.97;5017858;28;20120;-78
2023/03/31 03:15:51;;;;;;;9.27;3.83;;;;;;;9.85;100.00;100642.41;5021221;28;20425;-77
2023/03/31 03:18:16;;;;;;;6.88;3.53;;;;;;;9.85;100.00;100639.78;5017412;28;20058;-77
2023/03/31 03:20:47;;;;;;;7.53;3.28;;;;;;;9.87;100.00;100631.84;5027526;28;20061;-77
2023/03/31 03:23:13;;;;;;;8.18;4.13;;;;;;;9.88;100.00;100630.91;5017967;28;20037;-77
2023/03/31 03:25:38;;;;;;;9.52;4.00;;;;;;;9.87;100.00;100627.47;5024238;28;20066;-77
2023/03/31 03:28:04;;;;;;;9.20;3.53;;;;;;;9.88;100.00;100636.09;5025112;28;20029;-77
2023/03/31 03:30:29;;;;;;;9.85;4.00;;;;;;;9.88;100.00;100633.50;5029156;28;20168;-77
2023/03/31 03:32:57;;;;;;;8.13;3.90;;;;;;;9.85;100.00;100620.75;5018293;28;20035;-77
2023/03/31 03:35:23;;;;;;;10.32;3.38;;;;;;;9.85;100.00;100610.34;5031490;28;20421;-77
2023/03/31 03:37:48;;;;;;;6.47;4.03;;;;;;;9.84;100.00;100614.72;5027764;28;20083;-77
2023/03/31 03:40:14;;;;;;;9.68;4.00;;;;;;;9.86;100.00;100612.00;5024993;28;20114;-77
2023/03/31 03:42:39;;;;;;;7.47;3.55;;;;;;;9.88;100.00;100617.88;5030812;28;20026;-77
2023/03/31 03:45:06;;;;;;;10.63;5.28;;;;;;;9.88;100.00;100612.69;5023844;28;20040;-77
2023/03/31 03:47:32;;;;;;;8.88;4.35;;;;;;;9.87;100.00;100618.84;5030165;28;20029;-77
2023/03/31 03:49:58;;;;;;;8.95;4.97;;;;;;;9.86;100.00;100622.41;5024915;28;20087;-77
2023/03/31 03:52:23;;;;;;;9.27;5.07;;;;;;;9.81;100.00;100612.41;5025178;28;20352;-77
2023/03/31 03:54:48;;;;;;;7.97;4.45;;;;;;;9.81;100.00;100617.59;5023182;28;20506;-77
2023/03/31 03:57:14;;;;;;;7.72;3.92;;;;;;;9.81;100.00;100616.78;5019374;28;20467;-77
2023/03/31 03:59:39;;;;;;;7.93;4.07;;;;;;;9.82;100.00;100621.84;5025962;28;20052;-77
2023/03/31 04:02:05;;;;;;;7.38;4.00;;;;;;;9.83;100.00;100618.28;5022131;28;20309;-77
2023/03/31 04:04:30;;;;;;;8.07;3.97;;;;;;;9.85;100.00;100624.19;5024587;28;20050;-77
2023/03/31 04:06:56;;;;;;;6.05;3.70;;;;;;;9.85;100.00;100620.75;5026352;28;20030;-77
2023/03/31 04:09:21;;;;;;;6.22;3.58;;;;;;;9.82;100.00;100621.84;5031627;28;20035;-77
2023/03/31 04:11:47;;;;;;;10.55;4.22;;;;;;;9.81;100.00;100616.78;5030829;28;20025;-77
2023/03/31 04:14:12;;;;;;;9.10;3.38;;;;;;;9.81;100.00;100614.19;5029765;28;20055;-77
2023/03/31 04:16:39;;;;;;;6.75;3.03;;;;;;;9.79;100.00;100613.50;5033211;28;20045;-77
2023/03/31 04:19:05;;;;;;;6.07;3.13;;;;;;;9.76;100.00;100613.75;5032640;28;20226;-77
2023/03/31 04:21:33;;;;;;;6.95;3.53;;;;;;;9.76;100.00;100596.38;5029993;28;20037;-77
2023/03/31 04:24:03;;;;;;;7.38;3.63;;;;;;;9.77;100.00;100599.78;5029369;28;20034;-76
2023/03/31 04:26:37;;;;;;;7.25;3.17;;;;;;;9.78;100.00;100606.63;5023948;28;20053;-77
2023/03/31 04:29:04;;;;;;;9.75;3.50;;;;;;;9.81;100.00;100606.38;5031205;28;20457;-77
2023/03/31 04:31:29;;;;;;;5.65;3.90;;;;;;;9.83;100.00;100602.69;5034969;28;20171;-77
2023/03/31 04:34:01;;;;;;;10.05;3.58;;;;;;;9.84;100.00;100600.91;5032638;28;20120;-76
2023/03/31 04:36:27;;;;;;;6.72;3.53;;;;;;;9.84;100.00;100599.13;5029195;28;20098;-76
2023/03/31 04:38:53;;;;;;;7.47;3.55;;;;;;;9.87;100.00;100596.25;5034024;28;20073;-77
2023/03/31 04:41:20;;;;;;;10.80;4.30;;;;;;;9.88;100.00;100597.06;5033403;28;20050;-77
2023/03/31 04:43:45;;;;;;;8.55;4.10;;;;;;;9.88;100.00;100579.66;5034573;28;20033;-77
2023/03/31 04:46:11;;;;;;;8.98;3.83;;;;;;;9.87;100.00;100588.44;5034029;28;20475;-77
2023/03/31 04:48:36;;;;;;;7.93;4.40;;;;;;;9.88;100.00;100584.06;5024623;28;20182;-77
2023/03/31 04:51:02;;;;;;;9.00;5.03;;;;;;;9.88;100.00;100586.66;5028891;28;20030;-77
2023/03/31 04:53:28;;;;;;;7.95;4.00;;;;;;;9.89;100.00;100593.50;5033903;28;20041;-77
2023/03/31 04:55:54;;;;;;;8.90;4.55;;;;;;;9.87;100.00;100595.41;5024263;28;20080;-77
2023/03/31 04:58:19;;;;;;;8.40;4.38;;;;;;;9.87;100.00;100598.84;5019944;28;20471;-76
2023/03/31 05:00:45;;;;;;;12.32;4.65;;;;;;;9.87;100.00;100592.81;5027094;28;20044;-77
2023/03/31 05:03:10;;;;;;;6.20;3.97;;;;;;;9.87;100.00;100595.41;5023367;28;20038;-77
2023/03/31 05:05:36;;;;;;;7.50;4.63;;;;;;;9.88;100.00;100591.84;5014438;28;20030;-77
2023/03/31 05:08:03;;;;;;;9.73;4.47;;;;;;;9.87;100.00;100577.19;5014118;28;20052;-77
2023/03/31 05:10:28;;;;;;;8.65;4.90;;;;;;;9.86;100.00;100584.19;5019803;28;20479;-77
2023/03/31 05:12:54;;;;;;;12.63;5.63;;;;;;;9.83;100.00;100578.44;5014229;28;20048;-76
2023/03/31 05:15:19;;;;;;;11.93;5.30;;;;;;;9.83;100.00;100576.66;5020574;28;20135;-76
2023/03/31 05:17:45;;;;;;;8.98;4.60;;;;;;;9.83;100.00;100586.25;5017078;28;20034;-75
2023/03/31 05:20:12;;;;;;;10.27;5.10;;;;;;;9.85;100.00;100579.94;5026766;28;20037;-76
2023/03/31 05:22:39;;;;;;;9.52;4.55;;;;;;;9.85;100.00;100577.34;5016041;28;20040;-77
2023/03/31 05:25:06;;;;;;;9.25;4.25;;;;;;;9.86;100.00;100570.34;5019970;28;20040;-77
2023/03/31 05:27:33;;;;;;;10.00;4.32;;;;;;;9.88;100.00;100571.84;5026845;28;20451;-77
2023/03/31 05:29:59;;;;;;;9.55;4.40;;;;;;;9.90;100.00;100569.13;5023961;28;20034;-76
2023/03/31 05:32:26;;;;;;;9.40;4.72;;;;;;;9.90;100.00;100563.91;5022427;28;20029;-77
2023/03/31 05:34:55;;;;;;;9.20;3.92;;;;;;;9.91;100.00;100562.97;5023672;28;20095;-77
2023/03/31 05:37:22;;;;;;;7.85;4.88;;;;;;;9.92;100.00;100564.59;5021004;28;20029;-77
2023/03/31 05:39:48;;;;;;;10.82;4.45;;;;;;;9.91;100.00;100557.75;5024831;28;20038;-77
2023/03/31 05:42:13;;;;;;;11.48;6.03;;;;;;;9.93;100.00;100548.00;5020183;28;20032;-76
2023/03/31 05:44:39;;;;;;;9.70;5.20;;;;;;;9.91;100.00;100536.94;5017319;28;20040;-77
2023/03/31 05:47:04;;;;;;;7.63;4.72;;;;;;;9.92;100.00;100530.78;5016110;28;20049;-77
2023/03/31 05:49:30;;;;;;;10.57;5.18;;;;;;;9.94;100.00;100528.81;5023387;28;20370;-77
2023/03/31 05:51:56;;;;;;;11.40;5.50;;;;;;;9.95;100.00;100528.69;5021447;28;20041;-76
2023/03/31 05:54:21;;;;;;;13.20;5.30;;;;;;;9.98;100.00;100532.78;5026672;28;20853;-77
2023/03/31 05:56:47;;;;;;;9.60;5.07;;;;;;;9.99;100.00;100534.44;5018821;28;20119;-77
2023/03/31 05:59:13;;;;;;;9.40;4.88;;;;;;;10.01;100.00;100535.13;5019643;28;20037;-76
2023/03/31 06:01:38;;;;;;;11.55;5.78;;;;;;;10.03;100.00;100548.81;5023585;28;20482;-76
2023/03/31 06:04:04;;;;;;;8.90;5.40;;;;;;;10.03;100.00;100551.41;5021058;28;20077;-76
2023/03/31 06:06:32;;;;;;;12.43;5.57;;;;;;;10.03;100.00;100546.22;5029960;28;20029;-77
2023/03/31 06:08:57;;;;;;;11.88;5.65;;;;;;;10.02;100.00;100552.38;5023766;28;20494;-77
2023/03/31 06:11:23;;;;;;;12.32;6.90;;;;;;;10.02;100.00;100548.94;5022827;28;20055;-77
2023/03/31 06:13:48;;;;;;;16.77;7.18;;;;;;;10.03;100.00;100542.78;5022322;28;20037;-77
2023/03/31 06:16:16;;;;;;;14.10;6.43;;;;;;;10.06;100.00;100538.13;5018659;28;20040;-76
2023/03/31 06:18:42;;;;;;;13.93;6.70;;;;;;;10.08;100.00;100548.41;5023070;28;20029;-77
2023/03/31 06:21:10;;;;;;;12.57;5.85;;;;;;;10.08;100.00;100557.03;5016974;28;20041;-77
2023/03/31 06:23:35;;;;;;;7.38;4.53;;;;;;;10.09;100.00;100558.69;5013176;28;20052;-77
2023/03/31 06:26:05;;;;;;;9.95;4.57;;;;;;;10.06;100.00;100558.94;5024256;28;20034;-76
2023/03/31 06:28:31;;;;;;;7.93;5.55;;;;;;;10.04;100.00;100560.88;5023914;28;20068;-77
2023/03/31 06:31:05;;;;;;;7.68;4.40;;;;;;;10.00;100.00;100562.09;5024024;28;20057;-77
2023/03/31 06:33:32;;;;;;;8.30;4.82;;;;;;;10.02;100.00;100560.19;5019052;28;20030;-77
2023/03/31 06:36:00;;;;;;;6.75;4.60;;;;;;;10.07;100.00;100570.19;5026501;28;20403;-77
2023/03/31 06:38:26;;;;;;;7.97;4.95;;;;;;;10.11;100.00;100561.13;5024207;28;20474;-77
2023/03/31 06:40:51;;;;;;;8.13;5.07;;;;;;;10.11;100.00;100556.75;5024935;28;20021;-77
2023/03/31 06:43:17;;;;;;;14.65;5.32;;;;;;;10.14;100.00;100566.88;5031642;28;20029;-78
2023/03/31 06:45:42;;;;;;;9.57;5.57;;;;;;;10.13;100.00;100569.63;5028301;28;20025;-77
2023/03/31 06:48:08;;;;;;;11.35;4.97;;;;;;;10.14;100.00;100553.06;5032253;28;20049;-77
2023/03/31 06:50:37;;;;;;;8.85;5.63;;;;;;;10.15;100.00;100542.50;5027970;28;20038;-78
2023/03/31 06:53:02;;;;;;;8.90;5.90;;;;;;;10.19;100.00;100545.66;5020209;28;20371;-78
2023/03/31 06:55:28;;;;;;;10.13;5.05;;;;;;;10.22;100.00;100540.19;5023583;28;20169;-71
2023/03/31 06:57:53;;;;;;;9.60;4.75;;;;;;;10.23;100.00;100540.06;5026236;28;20471;-72
2023/03/31 07:00:19;;;;;;;8.77;4.57;;;;;;;10.26;100.00;100547.59;5021210;28;20128;-72
2023/03/31 07:02:44;;;;;;;10.80;5.70;;;;;;;10.29;100.00;100544.69;5023169;28;20025;-72
2023/03/31 07:05:10;;;;;;;14.32;6.20;;;;;;;10.30;100.00;100538.53;5021641;28;20104;-72
2023/03/31 07:07:35;;;;;;;15.60;6.43;;;;;;;10.30;100.00;100538.53;5031600;28;20033;-72
2023/03/31 07:10:00;;;;;;;10.45;5.85;;;;;;;10.30;100.00;100535.94;5030293;28;20339;-73
2023/03/31 07:12:26;;;;;;;13.68;4.57;;;;;;;10.37;100.00;100519.75;5016793;28;20033;-73
2023/03/31 07:14:51;;;;;;;11.38;4.75;;;;;;;10.39;100.00;100510.81;5014893;28;20053;-73
2023/03/31 07:17:17;;;;;;;13.18;5.68;;;;;;;10.43;100.00;100522.56;5014672;28;20034;-76
2023/03/31 07:19:46;;;;;;;10.68;6.38;;;;;;;10.47;100.00;100525.72;5014396;28;20454;-74
2023/03/31 07:22:13;;;;;;;8.30;5.72;;;;;;;10.49;100.00;100540.25;5018116;28;20034;-74
2023/03/31 07:24:39;;;;;;;9.43;5.18;;;;;;;10.51;100.00;100533.09;5019845;28;20440;-74
2023/03/31 07:27:04;;;;;;;12.52;6.85;;;;;;;10.51;100.00;100516.66;5025053;28;20045;-73
2023/03/31 07:29:30;;;;;;;10.43;5.88;;;;;;;10.52;100.00;100511.31;5009799;28;20164;-73
2023/03/31 07:31:55;;;;;;;11.43;5.55;;;;;;;10.51;100.00;100508.84;5016318;28;20038;-73
2023/03/31 07:34:20;;;;;;;14.07;5.78;;;;;;;10.52;100.00;100502.66;5010573;28;20037;-73
2023/03/31 07:36:46;;;;;;;9.45;5.32;;;;;;;10.54;100.00;100491.13;5014771;28;20044;-73
2023/03/31 07:39:12;;;;;;;13.80;4.50;;;;;;;10.57;100.00;100482.22;5016479;28;20056;-74
2023/03/31 07:41:37;;;;;;;11.60;5.68;;;;;;;10.58;100.00;100468.22;5011837;28;20422;-73
2023/03/31 07:44:02;;;;;;;9.95;5.15;;;;;;;10.61;100.00;100478.38;5018955;28;20435;-74
2023/03/31 07:46:29;;;;;;;7.72;4.97;;;;;;;10.62;100.00;100475.63;5019583;28;20029;-70
2023/03/31 07:48:57;;;;;;;11.40;5.30;;;;;;;10.58;100.00;100470.84;5018823;28;20391;-72
2023/03/31 07:51:25;;;;;;;8.75;4.63;;;;;;;10.52;100.00;100480.03;5018976;28;20126;-74
2023/03/31 07:53:51;;;;;;;12.25;4.38;;;;;;;10.51;100.00;100480.19;5020098;28;20545;-74
2023/03/31 07:56:18;;;;;;;8.80;4.47;;;;;;;10.53;100.00;100476.47;5025474;28;20117;-73
2023/03/31 07:58:45;;;;;;;10.63;3.90;;;;;;;10.59;100.00;100485.50;5032440;28;20051;-73
2023/03/31 08:01:16;;;;;;;6.72;3.28;;;;;;;10.67;100.00;100475.19;5032772;28;20375;-76
2023/03/31 08:03:43;;;;;;;7.22;4.00;;;;;;;10.74;100.00;100476.25;5024369;28;20169;-77
2023/03/31 08:06:08;;;;;;;12.85;5.20;;;;;;;10.76;100.00;100487.34;5019301;28;20041;-76
2023/03/31 08:08:37;;;;;;;9.18;4.65;;;;;;;10.74;100.00;100491.06;5017062;28;20029;-76
2023/03/31 08:11:02;;;;;;;14.48;5.32;;;;;;;10.74;100.00;100489.28;5021459;28;20038;-76
2023/03/31 08:13:28;;;;;;;11.23;5.75;;;;;;;10.67;100.00;100495.22;5021040;28;20040;-76
2023/03/31 08:15:53;;;;;;;11.50;5.13;;;;;;;10.66;100.00;100494.38;5019255;28;20111;-74
2023/03/31 08:18:19;;;;;;;10.35;5.75;;;;;;;10.62;100.00;100495.63;5025850;28;20048;-76
2023/03/31 08:20:44;;;;;;;8.75;5.13;;;;;;;10.66;100.00;100489.19;5017950;28;20483;-77
2023/03/31 08:23:10;;;;;;;10.90;6.15;;;;;;;10.64;100.00;100489.31;5019292;28;20372;-77
2023/03/31 08:25:37;;;;;;;13.98;5.53;;;;;;;10.61;100.00;100497.41;5023029;28;20033;-76
2023/03/31 08:28:02;;;;;;;11.32;7.07;;;;;;;10.58;100.00;100496.88;5020893;28;20037;-76
2023/03/31 08:30:28;;;;;;;13.05;5.45;;;;;;;10.56;100.00;100493.59;5019548;28;20039;-76
2023/03/31 08:32:53;;;;;;;14.52;6.80;;;;;;;10.56;100.00;100496.22;5021411;28;20137;-76
2023/03/31 08:35:19;;;;;;;14.05;7.03;;;;;;;10.59;100.00;100488.94;5020926;28;20034;-76
2023/03/31 08:37:44;;;;;;;18.42;7.95;;;;;;;10.61;100.00;100491.38;5021647;28;20025;-75
2023/03/31 08:40:19;;;;;;;18.73;7.53;;;;;;;10.57;100.00;100482.22;5016670;28;20033;-75
2023/03/31 08:43:01;;;;;;;22.80;9.70;;;;;;;10.56;100.00;100463.16;5024676;28;20037;-76
2023/03/31 08:45:33;;;;;;;19.95;8.13;;;;;;;10.56;100.00;100457.13;5024176;28;20033;-77
2023/03/31 08:48:24;;;;;;;23.55;9.93;;;;;;;10.57;100.00;100448.34;5022205;28;20042;-77
2023/03/31 08:50:55;;;;;;;23.02;8.60;;;;;;;10.61;100.00;100441.88;5020653;28;20333;-77
2023/03/31 08:53:42;;;;;;;18.60;8.68;;;;;;;10.62;100.00;100444.34;5025585;28;20061;-77
2023/03/31 08:56:15;;;;;;;19.63;9.27;;;;;;;10.69;100.00;100447.19;5024182;28;20022;-77
2023/03/31 08:58:48;;;;;;;29.42;8.35;;;;;;;10.73;100.00;100438.13;5019681;28;20121;-77
2023/03/31 09:01:52;;;;;;;23.05;8.75;;;;;;;10.85;100.00;100444.78;5022110;28;20399;-77
2023/03/31 09:04:39;;;;;;;24.13;9.35;;;;;;;11.01;100.00;100443.28;5017226;28;20076;-78
2023/03/31 09:07:15;;;;;;;23.05;8.10;;;;;;;11.08;100.00;100452.16;5025102;28;20400;-77
2023/03/31 09:10:11;;;;;;;22.80;9.15;;;;;;;11.15;100.00;100453.22;5026931;28;20108;-76
2023/03/31 09:12:42;;;;;;;18.25;8.45;;;;;;;11.17;100.00;100444.28;5023839;28;20030;-76
2023/03/31 09:15:21;;;;;;;20.27;8.38;;;;;;;11.23;100.00;100453.28;5025397;28;20038;-76
2023/03/31 09:17:50;;;;;;;15.57;8.52;;;;;;;11.24;100.00;100454.94;5032017;28;20041;-76
2023/03/31 09:20:21;;;;;;;20.52;7.50;;;;;;;11.25;100.00;100448.75;5031585;28;20079;-75
2023/03/31 09:22:51;;;;;;;19.88;7.75;;;;;;;11.26;100.00;100451.22;5032944;28;20037;-77
2023/03/31 09:25:25;;;;;;;18.60;8.52;;;;;;;11.30;100.00;100465.59;5022801;28;20041;-77
2023/03/31 09:27:54;;;;;;;18.55;8.55;;;;;;;11.35;100.00;100444.25;5030476;28;20045;-76
2023/03/31 09:30:25;;;;;;;18.88;8.75;;;;;;;11.43;100.00;100443.50;5023233;28;20040;-77
2023/03/31 09:33:14;;;;;;;17.27;9.82;;;;;;;11.48;100.00;100439.47;5017137;28;20120;-76
2023/03/31 09:35:40;;;;;;;23.20;10.13;;;;;;;11.54;100.00;100433.66;5013221;28;20034;-76
2023/03/31 09:38:08;;;;;;;27.27;9.80;;;;;;;11.58;100.00;100435.00;5012911;28;20238;-76
2023/03/31 09:40:34;;;;;;;17.92;9.75;;;;;;;11.61;100.00;100429.47;5013752;28;20030;-76
2023/03/31 09:43:03;;;;;;;14.45;8.73;;;;;;;11.61;100.00;100424.25;5019443;28;20042;-75
2023/03/31 09:45:30;;;;;;;21.70;8.85;;;;;;;11.64;100.00;100418.72;5020350;28;20605;-76
2023/03/31 09:48:12;;;;;;;15.75;8.05;;;;;;;11.72;100.00;100419.78;5015111;28;20048;-76
2023/03/31 09:50:45;;;;;;;17.95;8.38;;;;;;;11.77;100.00;100422.78;5016507;28;20025;-76
2023/03/31 09:53:30;;;;;;;13.15;7.25;;;;;;;11.85;100.00;100415.78;5020652;28;20033;-75
2023/03/31 09:56:01;;;;;;;15.75;7.57;;;;;;;11.94;100.00;100406.22;5014217;28;20184;-76
2023/03/31 09:58:27;;;;;;;22.55;7.30;;;;;;;11.98;100.00;100401.50;5017667;28;20037;-76
2023/03/31 10:01:05;;;;;;;18.92;6.90;;;;;;;11.95;100.00;100402.63;5022099;28;20034;-74
2023/03/31 10:03:35;;;;;;;13.85;7.65;;;;;;;11.92;100.00;100395.94;5017718;28;20057;-75
2023/03/31 10:06:07;;;;;;;15.27;6.47;;;;;;;11.96;100.00;100391.22;5022164;28;20115;-74
2023/03/31 10:08:53;;;;;;;21.08;8.27;;;;;;;12.06;100.00;100384.09;5020593;28;20029;-74
2023/03/31 10:11:19;;;;;;;22.80;8.32;;;;;;;12.12;100.00;100396.53;5025196;28;20033;-74
2023/03/31 10:13:44;;;;;;;18.30;8.15;;;;;;;12.13;100.00;100382.50;5025912;28;20421;-75
2023/03/31 10:16:27;;;;;;;12.80;6.95;;;;;;;12.15;100.00;100379.72;5023351;28;20036;-75
2023/03/31 10:18:53;;;;;;;17.27;7.95;;;;;;;12.16;100.00;100379.56;5027595;28;20037;-75
2023/03/31 10:21:27;;;;;;;16.63;8.68;;;;;;;12.21;100.00;100373.88;5026451;28;20049;-75
2023/03/31 10:23:53;;;;;;;18.20;7.60;;;;;;;12.23;100.00;100366.72;5028366;28;20493;-75
2023/03/31 10:26:26;;;;;;;14.27;8.15;;;;;;;12.40;100.00;100376.22;5027483;28;20503;-74
2023/03/31 10:28:54;;;;;;;19.67;7.60;;;;;;;12.45;100.00;100370.53;5016521;28;20368;-74
2023/03/31 10:31:33;;;;;;;18.60;8.63;;;;;;;12.47;100.00;100365.97;5014070;28;20044;-74
2023/03/31 10:34:03;;;;;;;16.58;7.93;;;;;;;12.51;100.00;100365.47;5020849;28;20041;-76
2023/03/31 10:36:30;;;;;;;17.38;8.38;;;;;;;12.50;100.00;100360.41;5011483;28;20034;-76
2023/03/31 10:38:57;;;;;;;17.35;8.07;;;;;;;12.41;100.00;100350.91;5017246;28;20033;-75
2023/03/31 10:41:26;;;;;;;21.25;9.25;;;;;;;12.43;100.00;100341.94;5014382;28;20048;-77
2023/03/31 10:43:56;;;;;;;18.23;8.65;;;;;;;12.51;100.00;100335.91;5019395;28;20029;-77
2023/03/31 10:46:46;;;;;;;19.35;9.20;;;;;;;12.49;100.00;100335.25;5014251;28;20131;-77
2023/03/31 10:49:24;;;;;;;18.88;10.48;;;;;;;12.42;100.00;100339.47;5019038;28;20046;-77
2023/03/31 10:51:55;;;;;;;15.88;11.60;;;;;;;12.26;100.00;100335.88;5019350;28;20105;-78
2023/03/31 10:54:20;;;;;;;24.65;12.68;;;;;;;12.09;100.00;100334.16;5021663;28;20116;-77
2023/03/31 10:56:49;;;;;;;22.75;13.15;;;;;;;12.02;100.00;100333.16;5021651;28;20120;-77
2023/03/31 10:59:20;;;;;;;32.00;13.48;;;;;;;11.95;100.00;100321.69;5017913;28;20057;-77
2023/03/31 11:02:06;;;;;;;23.08;15.50;;;;;;;11.91;100.00;100317.75;5018733;28;20029;-78
2023/03/31 11:05:04;;;;;;;26.40;14.27;;;;;;;11.84;100.00;100307.13;5020358;28;20046;-78
2023/03/31 11:07:59;;;;;;;24.83;15.38;;;;;;;11.80;100.00;100302.41;5028344;28;20051;-77
2023/03/31 11:10:34;;;;;;;26.67;16.60;;;;;;;11.81;100.00;100297.03;4986786;28;20038;-77
2023/03/31 11:13:06;;;;;;;26.35;16.65;;;;;;;11.84;100.00;100281.00;4982093;28;20026;-77
2023/03/31 11:15:42;;;;;;;21.38;16.27;;;;;;;11.81;100.00;100283.16;4985979;28;20053;-78
2023/03/31 11:18:25;;;;;;;27.33;16.60;;;;;;;11.82;100.00;100285.56;4984569;28;20053;-77
2023/03/31 11:20:54;;;;;;;27.85;16.73;;;;;;;11.83;100.00;100284.59;4984929;28;20054;-77
2023/03/31 11:23:23;;;;;;;27.35;17.52;;;;;;;11.87;100.00;100288.53;4985947;28;20050;-77
2023/03/31 11:26:14;;;;;;;26.98;15.65;;;;;;;11.88;100.00;100287.56;4986050;28;20066;-78
2023/03/31 11:29:25;;;;;;;21.83;15.40;;;;;;;11.91;100.00;100283.81;4981363;28;20089;-78